Skip Navigation Links Skip Navigation Links

Current Weather

Cuiaba Aeroporto, Cuiaba, Brazil

For information only: do not use for flight planning or navigation.
Latest weather
Observation time Saturday, September 22, 2018 12:00 PM BRT
Local time Saturday, September 22, 2018 12:58 PM BRT
Flight conditions Visual Meteorological Conditions
Winds
Wind direction South-Southeast (150°)
Wind speed 3 mph
Visibility 6.2 mi.
Sky condition
Ceiling unlimited
Cloud layer few clouds 2,000 ft.
Temperature 95°F
Dewpoint 61°F
Altimeter 29.91 in.Hg
Derived measurements
Relative humidity 32%
Heat index 95°F
Density altitude 3126 ft.
METAR SBCY 221500Z 15003KT 9999 FEW020 35/16 Q1013

Settings

Location code

InnerDrive.Weather 4.0.6770.0 Release CLR 4.0.30319.42000
Copyright ©2018 Inner Drive Technology. All rights reserved. Portions Copyright ©1986-2018 David Braverman.

Find weather

Site navigation


Skip Navigation Links

Place info

Page info

PayPal - The safer, easier way to pay online!

Return home.

Copyright ©2018 Inner Drive Technology. Purveyors of fine, hand-crafted computer software. Page printed 2018-09-22T15:58:34 UTC.